sensor_id;sensor_type;location;lat;lon;timestamp;P1;durP1;ratioP1;P2;durP2;ratioP2
16430;SDS011;8325;49.284;7.238;2023-05-14T04:03:47;7.68;;;5.15;;
16430;SDS011;8325;49.284;7.238;2023-05-14T04:07:59;5.43;;;4.93;;
16430;SDS011;8325;49.284;7.238;2023-05-14T04:12:11;5.30;;;4.65;;
16430;SDS011;8325;49.284;7.238;2023-05-14T04:16:22;5.95;;;5.03;;
16430;SDS011;8325;49.284;7.238;2023-05-14T04:20:34;6.88;;;5.68;;
16430;SDS011;8325;49.284;7.238;2023-05-14T04:24:45;5.75;;;5.15;;
16430;SDS011;8325;49.284;7.238;2023-05-14T04:28:57;6.15;;;5.40;;
16430;SDS011;8325;49.284;7.238;2023-05-14T04:33:13;8.25;;;5.57;;
16430;SDS011;8325;49.284;7.238;2023-05-14T04:37:24;6.95;;;5.78;;
16430;SDS011;8325;49.284;7.238;2023-05-14T04:41:36;7.95;;;6.60;;
16430;SDS011;8325;49.284;7.238;2023-05-14T04:45:47;10.75;;;6.05;;
16430;SDS011;8325;49.284;7.238;2023-05-14T04:49:59;9.85;;;6.55;;
16430;SDS011;8325;49.284;7.238;2023-05-14T04:54:10;7.10;;;6.10;;
16430;SDS011;8325;49.284;7.238;2023-05-14T04:58:22;9.25;;;6.15;;
16430;SDS011;8325;49.284;7.238;2023-05-14T05:02:34;8.38;;;6.25;;
16430;SDS011;8325;49.284;7.238;2023-05-14T05:06:46;7.22;;;6.05;;
16430;SDS011;8325;49.284;7.238;2023-05-14T05:10:57;10.57;;;7.25;;
16430;SDS011;8325;49.284;7.238;2023-05-14T05:15:09;9.77;;;7.10;;
16430;SDS011;8325;49.284;7.238;2023-05-14T05:19:20;8.52;;;6.55;;
16430;SDS011;8325;49.284;7.238;2023-05-14T05:23:46;7.03;;;6.32;;
16430;SDS011;8325;49.284;7.238;2023-05-14T05:27:57;9.13;;;6.65;;
16430;SDS011;8325;49.284;7.238;2023-05-14T05:32:09;10.27;;;6.28;;
16430;SDS011;8325;49.284;7.238;2023-05-14T05:36:20;7.13;;;5.57;;
16430;SDS011;8325;49.284;7.238;2023-05-14T05:40:32;8.40;;;5.90;;
16430;SDS011;8325;49.284;7.238;2023-05-14T05:44:44;7.65;;;5.25;;
16430;SDS011;8325;49.284;7.238;2023-05-14T05:48:55;5.55;;;4.90;;
16430;SDS011;8325;49.284;7.238;2023-05-14T05:53:07;7.07;;;5.05;;
16430;SDS011;8325;49.284;7.238;2023-05-14T05:57:18;5.30;;;4.82;;
16430;SDS011;8325;49.284;7.238;2023-05-14T06:01:30;6.82;;;5.05;;
16430;SDS011;8325;49.284;7.238;2023-05-14T06:05:41;6.88;;;4.82;;
16430;SDS011;8325;49.284;7.238;2023-05-14T06:09:53;5.30;;;4.90;;
16430;SDS011;8325;49.284;7.238;2023-05-14T06:14:05;6.18;;;4.90;;
16430;SDS011;8325;49.284;7.238;2023-05-14T06:18:16;4.75;;;4.32;;
16430;SDS011;8325;49.284;7.238;2023-05-14T06:22:28;5.07;;;4.57;;
16430;SDS011;8325;49.284;7.238;2023-05-14T06:26:39;4.95;;;4.55;;
16430;SDS011;8325;49.284;7.238;2023-05-14T06:30:51;6.07;;;4.55;;
16430;SDS011;8325;49.284;7.238;2023-05-14T06:35:04;4.47;;;4.07;;
16430;SDS011;8325;49.284;7.238;2023-05-14T06:39:16;5.80;;;4.88;;
16430;SDS011;8325;49.284;7.238;2023-05-14T06:43:28;4.50;;;4.10;;
16430;SDS011;8325;49.284;7.238;2023-05-14T06:47:39;6.35;;;4.35;;
16430;SDS011;8325;49.284;7.238;2023-05-14T06:51:51;4.68;;;4.28;;
16430;SDS011;8325;49.284;7.238;2023-05-14T06:56:04;5.32;;;4.78;;
16430;SDS011;8325;49.284;7.238;2023-05-14T07:00:15;6.25;;;5.00;;
16430;SDS011;8325;49.284;7.238;2023-05-14T07:04:27;5.32;;;4.82;;
16430;SDS011;8325;49.284;7.238;2023-05-14T07:08:39;7.07;;;5.00;;
16430;SDS011;8325;49.284;7.238;2023-05-14T07:12:50;5.30;;;4.80;;
16430;SDS011;8325;49.284;7.238;2023-05-14T07:17:02;6.47;;;5.30;;
16430;SDS011;8325;49.284;7.238;2023-05-14T07:21:14;5.50;;;5.00;;
16430;SDS011;8325;49.284;7.238;2023-05-14T07:25:25;5.95;;;5.05;;
16430;SDS011;8325;49.284;7.238;2023-05-14T07:29:37;5.80;;;5.10;;
16430;SDS011;8325;49.284;7.238;2023-05-14T07:33:49;5.95;;;5.35;;
16430;SDS011;8325;49.284;7.238;2023-05-14T07:38:00;5.20;;;4.75;;
16430;SDS011;8325;49.284;7.238;2023-05-14T07:42:12;5.45;;;4.80;;
16430;SDS011;8325;49.284;7.238;2023-05-14T07:46:38;5.15;;;4.75;;
16430;SDS011;8325;49.284;7.238;2023-05-14T07:50:49;6.57;;;4.43;;
16430;SDS011;8325;49.284;7.238;2023-05-14T07:55:02;4.72;;;4.32;;
16430;SDS011;8325;49.284;7.238;2023-05-14T07:59:14;5.18;;;4.60;;
16430;SDS011;8325;49.284;7.238;2023-05-14T08:03:25;4.63;;;4.22;;
16430;SDS011;8325;49.284;7.238;2023-05-14T08:07:37;4.78;;;4.38;;
16430;SDS011;8325;49.284;7.238;2023-05-14T08:11:49;6.18;;;5.13;;
16430;SDS011;8325;49.284;7.238;2023-05-14T08:16:00;6.55;;;4.68;;
16430;SDS011;8325;49.284;7.238;2023-05-14T08:20:12;4.80;;;4.30;;
16430;SDS011;8325;49.284;7.238;2023-05-14T08:24:23;4.53;;;4.13;;
16430;SDS011;8325;49.284;7.238;2023-05-14T08:28:35;4.72;;;4.25;;
16430;SDS011;8325;49.284;7.238;2023-05-14T08:32:46;4.28;;;3.60;;
16430;SDS011;8325;49.284;7.238;2023-05-14T08:36:58;6.18;;;4.47;;
16430;SDS011;8325;49.284;7.238;2023-05-14T08:41:10;4.10;;;3.75;;
16430;SDS011;8325;49.284;7.238;2023-05-14T08:45:25;4.30;;;3.90;;
16430;SDS011;8325;49.284;7.238;2023-05-14T08:53:52;3.58;;;3.28;;
16430;SDS011;8325;49.284;7.238;2023-05-14T08:58:04;4.30;;;3.78;;
16430;SDS011;8325;49.284;7.238;2023-05-14T09:02:16;5.13;;;4.20;;
16430;SDS011;8325;49.284;7.238;2023-05-14T09:06:30;4.10;;;3.70;;
16430;SDS011;8325;49.284;7.238;2023-05-14T09:10:43;4.15;;;3.70;;
16430;SDS011;8325;49.284;7.238;2023-05-14T09:14:54;4.47;;;3.88;;
16430;SDS011;8325;49.284;7.238;2023-05-14T09:19:06;3.90;;;3.58;;
16430;SDS011;8325;49.284;7.238;2023-05-14T09:23:17;5.10;;;3.85;;
16430;SDS011;8325;49.284;7.238;2023-05-14T09:27:29;4.57;;;4.15;;
16430;SDS011;8325;49.284;7.238;2023-05-14T09:31:42;4.70;;;4.10;;
16430;SDS011;8325;49.284;7.238;2023-05-14T09:35:56;5.38;;;4.18;;
16430;SDS011;8325;49.284;7.238;2023-05-14T09:40:10;5.20;;;4.13;;
16430;SDS011;8325;49.284;7.238;2023-05-14T09:44:22;4.43;;;4.03;;
16430;SDS011;8325;49.284;7.238;2023-05-14T09:48:35;4.30;;;3.90;;
16430;SDS011;8325;49.284;7.238;2023-05-14T09:52:46;4.45;;;4.05;;
16430;SDS011;8325;49.284;7.238;2023-05-14T09:56:58;4.80;;;4.30;;
16430;SDS011;8325;49.284;7.238;2023-05-14T10:01:09;4.72;;;3.85;;
16430;SDS011;8325;49.284;7.238;2023-05-14T10:05:22;4.05;;;3.65;;
16430;SDS011;8325;49.284;7.238;2023-05-14T10:09:34;3.85;;;3.40;;
16430;SDS011;8325;49.284;7.238;2023-05-14T10:18:11;4.30;;;3.47;;
16430;SDS011;8325;49.284;7.238;2023-05-14T10:22:26;3.58;;;3.28;;
16430;SDS011;8325;49.284;7.238;2023-05-14T10:26:43;5.25;;;3.53;;
16430;SDS011;8325;49.284;7.238;2023-05-14T10:30:55;4.18;;;3.70;;
16430;SDS011;8325;49.284;7.238;2023-05-14T10:35:14;5.20;;;3.88;;
16430;SDS011;8325;49.284;7.238;2023-05-14T10:43:56;17.85;;;11.98;;
16430;SDS011;8325;49.284;7.238;2023-05-14T10:48:07;4.35;;;3.55;;
16430;SDS011;8325;49.284;7.238;2023-05-14T10:52:19;3.80;;;3.50;;
16430;SDS011;8325;49.284;7.238;2023-05-14T10:56:31;3.85;;;3.45;;
16430;SDS011;8325;49.284;7.238;2023-05-14T11:00:46;3.70;;;3.40;;
16430;SDS011;8325;49.284;7.238;2023-05-14T11:04:59;4.18;;;3.00;;
16430;SDS011;8325;49.284;7.238;2023-05-14T11:09:16;2.90;;;2.70;;
16430;SDS011;8325;49.284;7.238;2023-05-14T11:13:28;3.30;;;3.00;;
16430;SDS011;8325;49.284;7.238;2023-05-14T11:17:40;4.13;;;3.67;;
16430;SDS011;8325;49.284;7.238;2023-05-14T11:21:53;3.30;;;2.97;;
16430;SDS011;8325;49.284;7.238;2023-05-14T11:26:06;3.05;;;2.85;;
16430;SDS011;8325;49.284;7.238;2023-05-14T11:30:18;3.28;;;2.97;;
16430;SDS011;8325;49.284;7.238;2023-05-14T11:34:30;3.60;;;3.30;;
16430;SDS011;8325;49.284;7.238;2023-05-14T11:38:45;2.90;;;2.70;;
16430;SDS011;8325;49.284;7.238;2023-05-14T11:43:02;3.05;;;2.85;;
16430;SDS011;8325;49.284;7.238;2023-05-14T11:47:14;3.10;;;2.80;;
16430;SDS011;8325;49.284;7.238;2023-05-14T11:51:27;2.78;;;2.50;;
16430;SDS011;8325;49.284;7.238;2023-05-14T11:55:39;2.38;;;2.17;;
16430;SDS011;8325;49.284;7.238;2023-05-14T11:59:54;2.83;;;2.63;;
16430;SDS011;8325;49.284;7.238;2023-05-14T12:04:09;3.45;;;2.97;;
16430;SDS011;8325;49.284;7.238;2023-05-14T12:08:21;2.72;;;2.50;;
16430;SDS011;8325;49.284;7.238;2023-05-14T12:12:36;3.22;;;2.92;;
16430;SDS011;8325;49.284;7.238;2023-05-14T12:16:48;2.70;;;2.50;;
16430;SDS011;8325;49.284;7.238;2023-05-14T12:21:03;3.17;;;2.70;;
16430;SDS011;8325;49.284;7.238;2023-05-14T12:25:18;2.65;;;2.45;;
16430;SDS011;8325;49.284;7.238;2023-05-14T12:29:29;2.85;;;2.65;;
16430;SDS011;8325;49.284;7.238;2023-05-14T12:33:41;2.90;;;2.70;;
16430;SDS011;8325;49.284;7.238;2023-05-14T12:37:52;3.38;;;2.72;;
16430;SDS011;8325;49.284;7.238;2023-05-14T12:42:04;2.70;;;2.50;;
16430;SDS011;8325;49.284;7.238;2023-05-14T12:46:16;2.60;;;2.40;;
16430;SDS011;8325;49.284;7.238;2023-05-14T12:50:28;3.03;;;2.65;;
16430;SDS011;8325;49.284;7.238;2023-05-14T12:54:39;3.45;;;3.17;;
16430;SDS011;8325;49.284;7.238;2023-05-14T12:58:54;3.13;;;2.83;;
16430;SDS011;8325;49.284;7.238;2023-05-14T13:03:06;3.38;;;3.03;;
16430;SDS011;8325;49.284;7.238;2023-05-14T13:07:18;2.95;;;2.65;;
16430;SDS011;8325;49.284;7.238;2023-05-14T13:11:29;3.15;;;2.67;;
16430;SDS011;8325;49.284;7.238;2023-05-14T13:15:42;2.90;;;2.70;;
16430;SDS011;8325;49.284;7.238;2023-05-14T13:19:54;3.00;;;2.70;;
16430;SDS011;8325;49.284;7.238;2023-05-14T13:24:05;3.50;;;2.83;;
16430;SDS011;8325;49.284;7.238;2023-05-14T13:28:17;2.92;;;2.72;;
16430;SDS011;8325;49.284;7.238;2023-05-14T13:32:28;3.05;;;2.85;;
16430;SDS011;8325;49.284;7.238;2023-05-14T13:36:41;5.60;;;3.22;;
16430;SDS011;8325;49.284;7.238;2023-05-14T13:40:53;3.03;;;2.72;;
16430;SDS011;8325;49.284;7.238;2023-05-14T13:45:07;3.15;;;2.70;;
16430;SDS011;8325;49.284;7.238;2023-05-14T13:49:19;2.45;;;2.25;;
16430;SDS011;8325;49.284;7.238;2023-05-14T13:53:31;2.97;;;2.70;;
16430;SDS011;8325;49.284;7.238;2023-05-14T13:57:42;2.58;;;2.38;;
16430;SDS011;8325;49.284;7.238;2023-05-14T14:01:54;2.28;;;2.08;;
16430;SDS011;8325;49.284;7.238;2023-05-14T14:06:06;2.95;;;2.65;;
16430;SDS011;8325;49.284;7.238;2023-05-14T14:10:17;2.85;;;2.63;;
16430;SDS011;8325;49.284;7.238;2023-05-14T14:14:29;2.83;;;2.63;;
16430;SDS011;8325;49.284;7.238;2023-05-14T14:18:40;2.90;;;2.60;;
16430;SDS011;8325;49.284;7.238;2023-05-14T14:22:53;2.80;;;2.50;;
16430;SDS011;8325;49.284;7.238;2023-05-14T14:27:05;2.78;;;2.58;;
16430;SDS011;8325;49.284;7.238;2023-05-14T14:31:16;3.38;;;2.40;;
16430;SDS011;8325;49.284;7.238;2023-05-14T14:35:28;2.30;;;2.10;;
16430;SDS011;8325;49.284;7.238;2023-05-14T14:39:40;2.47;;;2.17;;
16430;SDS011;8325;49.284;7.238;2023-05-14T14:43:52;3.63;;;2.30;;
16430;SDS011;8325;49.284;7.238;2023-05-14T14:52:34;1.95;;;1.85;;
16430;SDS011;8325;49.284;7.238;2023-05-14T14:56:46;2.30;;;2.10;;
16430;SDS011;8325;49.284;7.238;2023-05-14T15:00:59;4.35;;;2.20;;
16430;SDS011;8325;49.284;7.238;2023-05-14T15:05:11;2.70;;;2.50;;
16430;SDS011;8325;49.284;7.238;2023-05-14T15:09:23;3.08;;;2.78;;
16430;SDS011;8325;49.284;7.238;2023-05-14T15:13:34;3.03;;;2.20;;
16430;SDS011;8325;49.284;7.238;2023-05-14T15:17:46;2.72;;;2.53;;
16430;SDS011;8325;49.284;7.238;2023-05-14T15:21:59;2.63;;;2.42;;
16430;SDS011;8325;49.284;7.238;2023-05-14T15:26:10;3.65;;;2.65;;
16430;SDS011;8325;49.284;7.238;2023-05-14T15:30:22;2.75;;;2.50;;
16430;SDS011;8325;49.284;7.238;2023-05-14T15:34:33;3.60;;;2.65;;
16430;SDS011;8325;49.284;7.238;2023-05-14T15:38:45;2.80;;;2.53;;
16430;SDS011;8325;49.284;7.238;2023-05-14T15:42:57;2.70;;;2.50;;
16430;SDS011;8325;49.284;7.238;2023-05-14T15:47:08;2.10;;;1.90;;
16430;SDS011;8325;49.284;7.238;2023-05-14T15:51:20;2.25;;;2.05;;
16430;SDS011;8325;49.284;7.238;2023-05-14T15:55:31;2.30;;;2.13;;
16430;SDS011;8325;49.284;7.238;2023-05-14T15:59:43;2.33;;;2.13;;
16430;SDS011;8325;49.284;7.238;2023-05-14T16:03:57;2.63;;;2.42;;
16430;SDS011;8325;49.284;7.238;2023-05-14T16:08:09;2.28;;;2.00;;
16430;SDS011;8325;49.284;7.238;2023-05-14T16:12:20;2.83;;;2.22;;
16430;SDS011;8325;49.284;7.238;2023-05-14T16:16:32;2.35;;;2.15;;
16430;SDS011;8325;49.284;7.238;2023-05-14T16:20:43;2.72;;;2.53;;
16430;SDS011;8325;49.284;7.238;2023-05-14T16:24:55;2.63;;;2.22;;
16430;SDS011;8325;49.284;7.238;2023-05-14T16:29:06;2.38;;;2.13;;
16430;SDS011;8325;49.284;7.238;2023-05-14T16:33:18;2.60;;;2.40;;
16430;SDS011;8325;49.284;7.238;2023-05-14T16:37:30;2.08;;;1.95;;
16430;SDS011;8325;49.284;7.238;2023-05-14T16:41:41;2.10;;;1.90;;
16430;SDS011;8325;49.284;7.238;2023-05-14T16:45:53;1.40;;;1.30;;
16430;SDS011;8325;49.284;7.238;2023-05-14T16:50:05;2.13;;;1.90;;
16430;SDS011;8325;49.284;7.238;2023-05-14T16:54:18;1.98;;;1.75;;
16430;SDS011;8325;49.284;7.238;2023-05-14T16:58:30;2.55;;;2.10;;
16430;SDS011;8325;49.284;7.238;2023-05-14T17:02:41;2.38;;;1.70;;
16430;SDS011;8325;49.284;7.238;2023-05-14T17:06:53;2.03;;;1.92;;
16430;SDS011;8325;49.284;7.238;2023-05-14T17:11:05;1.98;;;1.88;;
16430;SDS011;8325;49.284;7.238;2023-05-14T17:15:16;3.05;;;1.85;;
16430;SDS011;8325;49.284;7.238;2023-05-14T17:19:28;2.45;;;2.00;;
16430;SDS011;8325;49.284;7.238;2023-05-14T17:23:39;2.13;;;1.80;;
16430;SDS011;8325;49.284;7.238;2023-05-14T17:27:52;3.00;;;1.90;;
16430;SDS011;8325;49.284;7.238;2023-05-14T17:32:04;2.47;;;1.95;;
16430;SDS011;8325;49.284;7.238;2023-05-14T17:36:15;2.42;;;2.00;;
16430;SDS011;8325;49.284;7.238;2023-05-14T17:40:27;2.20;;;2.00;;
16430;SDS011;8325;49.284;7.238;2023-05-14T17:44:38;2.63;;;2.15;;
16430;SDS011;8325;49.284;7.238;2023-05-14T17:48:50;2.67;;;2.42;;
16430;SDS011;8325;49.284;7.238;2023-05-14T17:53:02;2.53;;;2.17;;
16430;SDS011;8325;49.284;7.238;2023-05-14T17:57:14;2.45;;;2.13;;
16430;SDS011;8325;49.284;7.238;2023-05-14T18:01:25;1.98;;;1.88;;
16430;SDS011;8325;49.284;7.238;2023-05-14T18:05:37;1.92;;;1.80;;
16430;SDS011;8325;49.284;7.238;2023-05-14T18:09:49;1.75;;;1.65;;
16430;SDS011;8325;49.284;7.238;2023-05-14T18:14:00;1.80;;;1.70;;
16430;SDS011;8325;49.284;7.238;2023-05-14T18:18:12;1.80;;;1.70;;
16430;SDS011;8325;49.284;7.238;2023-05-14T18:22:27;1.92;;;1.73;;
16430;SDS011;8325;49.284;7.238;2023-05-14T18:26:38;1.70;;;1.60;;
16430;SDS011;8325;49.284;7.238;2023-05-14T18:30:50;2.00;;;1.80;;
16430;SDS011;8325;49.284;7.238;2023-05-14T18:35:02;2.05;;;1.83;;
16430;SDS011;8325;49.284;7.238;2023-05-14T18:39:17;1.75;;;1.65;;
16430;SDS011;8325;49.284;7.238;2023-05-14T18:43:29;3.55;;;1.90;;
16430;SDS011;8325;49.284;7.238;2023-05-14T18:47:41;2.60;;;1.88;;
16430;SDS011;8325;49.284;7.238;2023-05-14T18:51:52;1.92;;;1.67;;
16430;SDS011;8325;49.284;7.238;2023-05-14T18:56:04;1.80;;;1.60;;
16430;SDS011;8325;49.284;7.238;2023-05-14T19:00:15;2.13;;;1.50;;
16430;SDS011;8325;49.284;7.238;2023-05-14T19:04:27;4.70;;;1.85;;
16430;SDS011;8325;49.284;7.238;2023-05-14T19:08:43;2.10;;;1.98;;
16430;SDS011;8325;49.284;7.238;2023-05-14T19:12:54;2.22;;;1.80;;
16430;SDS011;8325;49.284;7.238;2023-05-14T19:17:06;2.97;;;1.52;;
16430;SDS011;8325;49.284;7.238;2023-05-14T19:21:17;2.10;;;1.90;;
16430;SDS011;8325;49.284;7.238;2023-05-14T19:25:29;1.50;;;1.40;;
16430;SDS011;8325;49.284;7.238;2023-05-14T19:29:41;1.92;;;1.73;;
16430;SDS011;8325;49.284;7.238;2023-05-14T19:33:53;1.95;;;1.55;;
16430;SDS011;8325;49.284;7.238;2023-05-14T19:38:05;1.92;;;1.73;;
16430;SDS011;8325;49.284;7.238;2023-05-14T19:42:16;1.90;;;1.80;;
16430;SDS011;8325;49.284;7.238;2023-05-14T19:46:28;2.20;;;1.92;;
16430;SDS011;8325;49.284;7.238;2023-05-14T19:50:39;4.00;;;1.98;;
16430;SDS011;8325;49.284;7.238;2023-05-14T19:54:51;2.28;;;2.00;;
16430;SDS011;8325;49.284;7.238;2023-05-14T19:59:03;2.85;;;2.05;;
16430;SDS011;8325;49.284;7.238;2023-05-14T20:03:14;2.70;;;1.75;;
16430;SDS011;8325;49.284;7.238;2023-05-14T20:07:26;2.28;;;1.88;;
16430;SDS011;8325;49.284;7.238;2023-05-14T20:11:39;1.70;;;1.60;;
16430;SDS011;8325;49.284;7.238;2023-05-14T20:15:51;2.35;;;1.60;;
16430;SDS011;8325;49.284;7.238;2023-05-14T20:20:02;2.17;;;1.85;;
16430;SDS011;8325;49.284;7.238;2023-05-14T20:24:15;2.58;;;1.70;;
16430;SDS011;8325;49.284;7.238;2023-05-14T20:28:26;2.42;;;2.10;;
16430;SDS011;8325;49.284;7.238;2023-05-14T20:32:38;2.22;;;1.92;;
16430;SDS011;8325;49.284;7.238;2023-05-14T20:36:49;2.15;;;1.95;;
16430;SDS011;8325;49.284;7.238;2023-05-14T20:41:02;3.50;;;2.28;;
16430;SDS011;8325;49.284;7.238;2023-05-14T20:45:13;3.33;;;2.05;;
16430;SDS011;8325;49.284;7.238;2023-05-14T20:49:25;3.72;;;2.13;;
16430;SDS011;8325;49.284;7.238;2023-05-14T20:53:36;2.38;;;2.17;;
16430;SDS011;8325;49.284;7.238;2023-05-14T20:57:49;2.97;;;1.85;;
16430;SDS011;8325;49.284;7.238;2023-05-14T21:02:00;2.92;;;2.20;;
16430;SDS011;8325;49.284;7.238;2023-05-14T21:06:12;2.10;;;1.92;;
16430;SDS011;8325;49.284;7.238;2023-05-14T21:10:24;3.63;;;2.50;;
16430;SDS011;8325;49.284;7.238;2023-05-14T21:14:36;2.20;;;2.00;;
16430;SDS011;8325;49.284;7.238;2023-05-14T21:18:47;2.75;;;2.20;;
16430;SDS011;8325;49.284;7.238;2023-05-14T21:22:59;2.42;;;2.20;;
16430;SDS011;8325;49.284;7.238;2023-05-14T21:27:10;3.03;;;2.13;;
